Terminal Aerodrome Forecast
Issued by NWS Charleston, WV

Current Version | Previous Version | Graphics & Text | Print | Product List | Glossary On
Versions: 1 2 3 4 5 6 7 8 9 10 11 12 13 14 15 16 17 18 19 20 21 22 23 24
000
FTUS41 KRLX 221432 AAA
TAFCRW
TAF AMD
KCRW 221432Z 2215/2312 32010G17KT P6SM OVC024
     FM221600 28009KT P6SM SCT035
     FM222000 29008KT P6SM FEW200
     FM230000 00000KT P6SM FEW150
     FM230600 00000KT 2SM BR SCT150=

USA.gov is the U.S. government's official web portal to all federal, state and local government web resources and services.